sensor_id;sensor_type;location;lat;lon;timestamp;P1;durP1;ratioP1;P2;durP2;ratioP2
4106;SDS011;21906;50.812;7.132;2022-09-03T00:00:15;3.10;;;2.90;;
4106;SDS011;21906;50.812;7.132;2022-09-03T00:02:47;3.03;;;2.87;;
4106;SDS011;21906;50.812;7.132;2022-09-03T00:13:43;3.10;;;2.90;;
4106;SDS011;21906;50.812;7.132;2022-09-03T00:16:15;3.00;;;2.80;;
4106;SDS011;21906;50.812;7.132;2022-09-03T00:18:54;3.20;;;2.90;;
4106;SDS011;21906;50.812;7.132;2022-09-03T00:24:13;2.87;;;2.67;;
4106;SDS011;21906;50.812;7.132;2022-09-03T00:26:43;3.00;;;2.63;;
4106;SDS011;21906;50.812;7.132;2022-09-03T00:31:48;3.00;;;2.80;;
4106;SDS011;21906;50.812;7.132;2022-09-03T00:34:22;2.60;;;2.40;;
4106;SDS011;21906;50.812;7.132;2022-09-03T00:37:00;2.73;;;2.53;;
4106;SDS011;21906;50.812;7.132;2022-09-03T00:39:27;2.57;;;2.37;;
4106;SDS011;21906;50.812;7.132;2022-09-03T00:47:55;3.00;;;2.70;;
4106;SDS011;21906;50.812;7.132;2022-09-03T00:50:35;2.90;;;2.73;;
4106;SDS011;21906;50.812;7.132;2022-09-03T00:58:51;2.47;;;2.37;;
4106;SDS011;21906;50.812;7.132;2022-09-03T01:13:28;2.77;;;2.50;;
4106;SDS011;21906;50.812;7.132;2022-09-03T01:45:26;2.63;;;2.53;;
4106;SDS011;21906;50.812;7.132;2022-09-03T01:50:49;2.57;;;2.37;;
4106;SDS011;21906;50.812;7.132;2022-09-03T01:58:57;2.57;;;2.40;;
4106;SDS011;21906;50.812;7.132;2022-09-03T02:01:35;2.20;;;2.10;;
4106;SDS011;21906;50.812;7.132;2022-09-03T02:04:15;2.43;;;2.10;;
4106;SDS011;21906;50.812;7.132;2022-09-03T02:06:44;2.10;;;2.00;;
4106;SDS011;21906;50.812;7.132;2022-09-03T02:09:13;5.00;;;2.90;;
4106;SDS011;21906;50.812;7.132;2022-09-03T02:11:40;4.23;;;2.33;;
4106;SDS011;21906;50.812;7.132;2022-09-03T02:14:08;2.40;;;2.20;;
4106;SDS011;21906;50.812;7.132;2022-09-03T02:16:34;2.50;;;2.30;;
4106;SDS011;21906;50.812;7.132;2022-09-03T02:19:00;2.20;;;2.10;;
4106;SDS011;21906;50.812;7.132;2022-09-03T02:21:31;2.10;;;2.00;;
4106;SDS011;21906;50.812;7.132;2022-09-03T02:24:02;2.40;;;2.30;;
4106;SDS011;21906;50.812;7.132;2022-09-03T02:26:29;2.40;;;2.30;;
4106;SDS011;21906;50.812;7.132;2022-09-03T02:28:54;2.40;;;2.20;;
4106;SDS011;21906;50.812;7.132;2022-09-03T02:31:21;3.20;;;2.40;;
4106;SDS011;21906;50.812;7.132;2022-09-03T02:33:48;2.33;;;2.23;;
4106;SDS011;21906;50.812;7.132;2022-09-03T02:36:16;2.30;;;2.20;;
4106;SDS011;21906;50.812;7.132;2022-09-03T02:38:44;2.30;;;2.20;;
4106;SDS011;21906;50.812;7.132;2022-09-03T02:41:10;4.03;;;2.63;;
4106;SDS011;21906;50.812;7.132;2022-09-03T02:43:41;2.60;;;2.40;;
4106;SDS011;21906;50.812;7.132;2022-09-03T02:46:19;3.40;;;2.30;;
4106;SDS011;21906;50.812;7.132;2022-09-03T02:48:48;3.20;;;2.50;;
4106;SDS011;21906;50.812;7.132;2022-09-03T02:51:13;2.57;;;2.37;;
4106;SDS011;21906;50.812;7.132;2022-09-03T02:53:40;2.30;;;2.20;;
4106;SDS011;21906;50.812;7.132;2022-09-03T02:56:06;2.47;;;2.37;;
4106;SDS011;21906;50.812;7.132;2022-09-03T02:58:32;2.80;;;2.60;;
4106;SDS011;21906;50.812;7.132;2022-09-03T03:00:57;2.10;;;2.00;;
4106;SDS011;21906;50.812;7.132;2022-09-03T03:03:24;2.33;;;2.23;;
4106;SDS011;21906;50.812;7.132;2022-09-03T03:05:51;2.60;;;2.40;;
4106;SDS011;21906;50.812;7.132;2022-09-03T03:08:22;2.57;;;2.37;;
4106;SDS011;21906;50.812;7.132;2022-09-03T03:10:52;2.27;;;2.07;;
4106;SDS011;21906;50.812;7.132;2022-09-03T03:13:22;2.53;;;2.37;;
4106;SDS011;21906;50.812;7.132;2022-09-03T03:15:48;2.53;;;2.33;;
4106;SDS011;21906;50.812;7.132;2022-09-03T03:18:14;2.70;;;2.50;;
4106;SDS011;21906;50.812;7.132;2022-09-03T03:20:41;3.80;;;2.50;;
4106;SDS011;21906;50.812;7.132;2022-09-03T03:23:08;2.57;;;2.40;;
4106;SDS011;21906;50.812;7.132;2022-09-03T03:25:35;2.50;;;2.30;;
4106;SDS011;21906;50.812;7.132;2022-09-03T03:28:02;2.20;;;2.10;;
4106;SDS011;21906;50.812;7.132;2022-09-03T03:30:29;2.83;;;2.57;;
4106;SDS011;21906;50.812;7.132;2022-09-03T03:32:55;3.23;;;2.30;;
4106;SDS011;21906;50.812;7.132;2022-09-03T03:35:21;2.50;;;2.40;;
4106;SDS011;21906;50.812;7.132;2022-09-03T03:37:47;2.47;;;2.37;;
4106;SDS011;21906;50.812;7.132;2022-09-03T03:40:13;2.57;;;2.47;;
4106;SDS011;21906;50.812;7.132;2022-09-03T03:42:39;2.70;;;2.57;;
4106;SDS011;21906;50.812;7.132;2022-09-03T03:45:06;2.50;;;2.30;;
4106;SDS011;21906;50.812;7.132;2022-09-03T03:47:34;3.37;;;2.40;;
4106;SDS011;21906;50.812;7.132;2022-09-03T03:50:00;2.93;;;2.73;;
4106;SDS011;21906;50.812;7.132;2022-09-03T03:52:27;2.43;;;2.33;;
4106;SDS011;21906;50.812;7.132;2022-09-03T03:54:53;2.57;;;2.37;;
4106;SDS011;21906;50.812;7.132;2022-09-03T03:57:19;2.30;;;2.10;;
4106;SDS011;21906;50.812;7.132;2022-09-03T03:59:45;2.40;;;2.30;;
4106;SDS011;21906;50.812;7.132;2022-09-03T04:02:12;2.20;;;2.10;;
4106;SDS011;21906;50.812;7.132;2022-09-03T04:04:38;2.37;;;2.27;;
4106;SDS011;21906;50.812;7.132;2022-09-03T04:07:04;2.60;;;2.40;;
4106;SDS011;21906;50.812;7.132;2022-09-03T04:09:30;2.40;;;2.30;;
4106;SDS011;21906;50.812;7.132;2022-09-03T04:11:56;2.37;;;2.27;;
4106;SDS011;21906;50.812;7.132;2022-09-03T04:14:24;2.63;;;2.43;;
4106;SDS011;21906;50.812;7.132;2022-09-03T04:16:51;2.43;;;2.33;;
4106;SDS011;21906;50.812;7.132;2022-09-03T04:19:17;2.30;;;2.20;;
4106;SDS011;21906;50.812;7.132;2022-09-03T04:21:44;2.50;;;2.40;;
4106;SDS011;21906;50.812;7.132;2022-09-03T04:24:10;3.13;;;2.93;;
4106;SDS011;21906;50.812;7.132;2022-09-03T04:26:35;2.30;;;2.20;;
4106;SDS011;21906;50.812;7.132;2022-09-03T04:29:03;2.60;;;2.40;;
4106;SDS011;21906;50.812;7.132;2022-09-03T04:31:30;2.40;;;2.30;;
4106;SDS011;21906;50.812;7.132;2022-09-03T04:33:57;2.30;;;2.10;;
4106;SDS011;21906;50.812;7.132;2022-09-03T04:36:24;2.50;;;2.30;;
4106;SDS011;21906;50.812;7.132;2022-09-03T04:38:51;2.10;;;2.00;;
4106;SDS011;21906;50.812;7.132;2022-09-03T04:41:19;2.50;;;2.40;;
4106;SDS011;21906;50.812;7.132;2022-09-03T04:43:55;2.30;;;2.20;;
4106;SDS011;21906;50.812;7.132;2022-09-03T04:46:25;2.30;;;2.20;;
4106;SDS011;21906;50.812;7.132;2022-09-03T04:48:57;2.57;;;2.37;;
4106;SDS011;21906;50.812;7.132;2022-09-03T04:51:24;3.40;;;2.50;;
4106;SDS011;21906;50.812;7.132;2022-09-03T04:53:58;2.70;;;2.50;;
4106;SDS011;21906;50.812;7.132;2022-09-03T04:56:30;2.47;;;2.37;;
4106;SDS011;21906;50.812;7.132;2022-09-03T04:58:58;3.03;;;2.70;;
4106;SDS011;21906;50.812;7.132;2022-09-03T05:01:25;2.60;;;2.40;;
4106;SDS011;21906;50.812;7.132;2022-09-03T05:03:54;2.47;;;2.27;;
4106;SDS011;21906;50.812;7.132;2022-09-03T05:06:20;2.37;;;2.27;;
4106;SDS011;21906;50.812;7.132;2022-09-03T05:08:49;3.33;;;2.23;;
4106;SDS011;21906;50.812;7.132;2022-09-03T05:11:16;2.50;;;2.40;;
4106;SDS011;21906;50.812;7.132;2022-09-03T05:13:43;2.73;;;2.20;;
4106;SDS011;21906;50.812;7.132;2022-09-03T05:16:13;2.43;;;2.23;;
4106;SDS011;21906;50.812;7.132;2022-09-03T05:18:39;2.57;;;2.47;;
4106;SDS011;21906;50.812;7.132;2022-09-03T05:21:09;2.43;;;2.33;;
4106;SDS011;21906;50.812;7.132;2022-09-03T05:23:38;2.47;;;2.37;;
4106;SDS011;21906;50.812;7.132;2022-09-03T05:26:10;3.97;;;2.40;;
4106;SDS011;21906;50.812;7.132;2022-09-03T05:28:38;2.37;;;2.27;;
4106;SDS011;21906;50.812;7.132;2022-09-03T05:31:07;2.83;;;2.63;;
4106;SDS011;21906;50.812;7.132;2022-09-03T05:33:38;2.50;;;2.30;;
4106;SDS011;21906;50.812;7.132;2022-09-03T05:36:06;2.50;;;2.40;;
4106;SDS011;21906;50.812;7.132;2022-09-03T05:38:34;2.90;;;2.37;;
4106;SDS011;21906;50.812;7.132;2022-09-03T05:41:01;2.73;;;2.53;;
4106;SDS011;21906;50.812;7.132;2022-09-03T05:43:31;2.87;;;2.67;;
4106;SDS011;21906;50.812;7.132;2022-09-03T05:46:04;2.23;;;2.13;;
4106;SDS011;21906;50.812;7.132;2022-09-03T05:48:35;2.60;;;2.40;;
4106;SDS011;21906;50.812;7.132;2022-09-03T05:51:03;2.30;;;2.20;;
4106;SDS011;21906;50.812;7.132;2022-09-03T05:53:45;3.20;;;2.57;;
4106;SDS011;21906;50.812;7.132;2022-09-03T05:56:13;2.57;;;2.37;;
4106;SDS011;21906;50.812;7.132;2022-09-03T05:58:42;2.77;;;2.57;;
4106;SDS011;21906;50.812;7.132;2022-09-03T06:01:13;2.67;;;2.30;;
4106;SDS011;21906;50.812;7.132;2022-09-03T06:03:41;2.50;;;2.30;;
4106;SDS011;21906;50.812;7.132;2022-09-03T06:06:07;2.33;;;2.13;;
4106;SDS011;21906;50.812;7.132;2022-09-03T06:08:34;2.13;;;1.90;;
4106;SDS011;21906;50.812;7.132;2022-09-03T06:11:02;2.50;;;2.40;;
4106;SDS011;21906;50.812;7.132;2022-09-03T06:13:29;2.50;;;2.40;;
4106;SDS011;21906;50.812;7.132;2022-09-03T06:15:56;2.50;;;2.30;;
4106;SDS011;21906;50.812;7.132;2022-09-03T06:18:22;2.33;;;2.23;;
4106;SDS011;21906;50.812;7.132;2022-09-03T06:20:55;2.40;;;2.00;;
4106;SDS011;21906;50.812;7.132;2022-09-03T06:23:25;2.73;;;2.47;;
4106;SDS011;21906;50.812;7.132;2022-09-03T06:28:37;2.53;;;2.33;;
4106;SDS011;21906;50.812;7.132;2022-09-03T06:31:06;3.10;;;2.20;;
4106;SDS011;21906;50.812;7.132;2022-09-03T06:33:34;2.30;;;2.10;;
4106;SDS011;21906;50.812;7.132;2022-09-03T06:36:01;2.90;;;2.70;;
4106;SDS011;21906;50.812;7.132;2022-09-03T06:38:29;3.40;;;2.40;;
4106;SDS011;21906;50.812;7.132;2022-09-03T06:40:59;11.33;;;2.43;;
4106;SDS011;21906;50.812;7.132;2022-09-03T06:43:35;2.33;;;2.23;;
4106;SDS011;21906;50.812;7.132;2022-09-03T06:48:32;2.13;;;2.03;;
4106;SDS011;21906;50.812;7.132;2022-09-03T06:51:00;3.13;;;2.50;;
4106;SDS011;21906;50.812;7.132;2022-09-03T06:53:31;2.40;;;2.20;;
4106;SDS011;21906;50.812;7.132;2022-09-03T06:56:00;2.27;;;2.17;;
4106;SDS011;21906;50.812;7.132;2022-09-03T06:58:27;3.70;;;2.40;;
4106;SDS011;21906;50.812;7.132;2022-09-03T07:01:04;2.77;;;2.57;;
4106;SDS011;21906;50.812;7.132;2022-09-03T07:03:34;2.40;;;2.13;;
4106;SDS011;21906;50.812;7.132;2022-09-03T07:06:01;4.30;;;2.40;;
4106;SDS011;21906;50.812;7.132;2022-09-03T07:08:35;2.40;;;2.20;;
4106;SDS011;21906;50.812;7.132;2022-09-03T07:11:01;2.67;;;2.47;;
4106;SDS011;21906;50.812;7.132;2022-09-03T07:13:31;2.40;;;2.30;;
4106;SDS011;21906;50.812;7.132;2022-09-03T07:16:01;2.57;;;2.20;;
4106;SDS011;21906;50.812;7.132;2022-09-03T07:18:29;2.30;;;2.10;;
4106;SDS011;21906;50.812;7.132;2022-09-03T07:21:14;3.30;;;2.50;;
4106;SDS011;21906;50.812;7.132;2022-09-03T07:23:45;2.50;;;2.40;;
4106;SDS011;21906;50.812;7.132;2022-09-03T07:26:15;2.67;;;2.57;;
4106;SDS011;21906;50.812;7.132;2022-09-03T07:28:44;2.90;;;2.20;;
4106;SDS011;21906;50.812;7.132;2022-09-03T07:31:21;3.20;;;2.47;;
4106;SDS011;21906;50.812;7.132;2022-09-03T07:33:49;5.10;;;2.43;;
4106;SDS011;21906;50.812;7.132;2022-09-03T07:36:20;3.93;;;2.13;;
4106;SDS011;21906;50.812;7.132;2022-09-03T07:38:46;2.40;;;2.20;;
4106;SDS011;21906;50.812;7.132;2022-09-03T07:41:13;2.63;;;2.40;;
4106;SDS011;21906;50.812;7.132;2022-09-03T07:43:43;2.57;;;2.10;;
4106;SDS011;21906;50.812;7.132;2022-09-03T07:48:46;2.17;;;2.07;;
4106;SDS011;21906;50.812;7.132;2022-09-03T07:51:13;2.20;;;2.10;;
4106;SDS011;21906;50.812;7.132;2022-09-03T07:53:39;2.40;;;2.30;;
4106;SDS011;21906;50.812;7.132;2022-09-03T07:56:05;2.37;;;2.17;;
4106;SDS011;21906;50.812;7.132;2022-09-03T07:58:34;3.10;;;2.40;;
4106;SDS011;21906;50.812;7.132;2022-09-03T08:01:11;2.40;;;2.20;;
4106;SDS011;21906;50.812;7.132;2022-09-03T08:03:38;2.43;;;2.33;;
4106;SDS011;21906;50.812;7.132;2022-09-03T08:06:11;2.20;;;2.10;;
4106;SDS011;21906;50.812;7.132;2022-09-03T08:08:37;5.77;;;2.40;;
4106;SDS011;21906;50.812;7.132;2022-09-03T08:13:34;3.03;;;2.30;;
4106;SDS011;21906;50.812;7.132;2022-09-03T08:16:01;3.70;;;2.77;;
4106;SDS011;21906;50.812;7.132;2022-09-03T08:18:27;2.97;;;2.80;;
4106;SDS011;21906;50.812;7.132;2022-09-03T08:20:58;2.63;;;2.53;;
4106;SDS011;21906;50.812;7.132;2022-09-03T08:23:24;2.83;;;2.63;;
4106;SDS011;21906;50.812;7.132;2022-09-03T08:25:56;2.53;;;2.33;;
4106;SDS011;21906;50.812;7.132;2022-09-03T08:28:26;3.07;;;2.87;;
4106;SDS011;21906;50.812;7.132;2022-09-03T08:30:52;2.90;;;2.67;;
4106;SDS011;21906;50.812;7.132;2022-09-03T08:33:17;3.20;;;2.90;;
4106;SDS011;21906;50.812;7.132;2022-09-03T08:36:11;2.97;;;2.77;;
4106;SDS011;21906;50.812;7.132;2022-09-03T08:38:39;3.30;;;3.10;;
4106;SDS011;21906;50.812;7.132;2022-09-03T08:46:30;3.50;;;2.60;;
4106;SDS011;21906;50.812;7.132;2022-09-03T08:49:05;3.27;;;3.07;;
4106;SDS011;21906;50.812;7.132;2022-09-03T08:51:34;3.30;;;3.10;;
4106;SDS011;21906;50.812;7.132;2022-09-03T08:54:03;4.33;;;2.97;;
4106;SDS011;21906;50.812;7.132;2022-09-03T08:56:31;3.30;;;3.10;;
4106;SDS011;21906;50.812;7.132;2022-09-03T08:59:02;3.50;;;3.30;;
4106;SDS011;21906;50.812;7.132;2022-09-03T09:01:40;3.43;;;3.10;;
4106;SDS011;21906;50.812;7.132;2022-09-03T09:12:22;3.30;;;3.10;;
4106;SDS011;21906;50.812;7.132;2022-09-03T09:23:45;3.50;;;3.00;;
4106;SDS011;21906;50.812;7.132;2022-09-03T09:26:14;3.03;;;2.83;;
4106;SDS011;21906;50.812;7.132;2022-09-03T09:28:49;3.30;;;3.10;;
4106;SDS011;21906;50.812;7.132;2022-09-03T09:31:22;3.43;;;3.23;;
4106;SDS011;21906;50.812;7.132;2022-09-03T09:33:48;3.10;;;2.90;;
4106;SDS011;21906;50.812;7.132;2022-09-03T09:36:16;3.00;;;2.80;;
4106;SDS011;21906;50.812;7.132;2022-09-03T09:38:43;3.03;;;2.83;;
4106;SDS011;21906;50.812;7.132;2022-09-03T09:41:13;3.33;;;3.13;;
4106;SDS011;21906;50.812;7.132;2022-09-03T09:43:41;3.10;;;2.90;;
4106;SDS011;21906;50.812;7.132;2022-09-03T09:46:20;3.40;;;3.17;;
4106;SDS011;21906;50.812;7.132;2022-09-03T09:48:50;3.43;;;3.00;;
4106;SDS011;21906;50.812;7.132;2022-09-03T09:56:38;3.13;;;2.93;;
4106;SDS011;21906;50.812;7.132;2022-09-03T09:59:08;3.00;;;2.80;;
4106;SDS011;21906;50.812;7.132;2022-09-03T10:01:44;3.00;;;2.80;;
4106;SDS011;21906;50.812;7.132;2022-09-03T10:04:22;3.40;;;3.10;;
4106;SDS011;21906;50.812;7.132;2022-09-03T10:10:06;3.37;;;2.80;;
4106;SDS011;21906;50.812;7.132;2022-09-03T10:12:41;2.87;;;2.67;;
4106;SDS011;21906;50.812;7.132;2022-09-03T10:20:09;4.50;;;2.67;;
4106;SDS011;21906;50.812;7.132;2022-09-03T10:28:24;3.40;;;3.00;;
4106;SDS011;21906;50.812;7.132;2022-09-03T10:36:46;2.90;;;2.50;;
4106;SDS011;21906;50.812;7.132;2022-09-03T10:45:22;3.17;;;2.90;;
4106;SDS011;21906;50.812;7.132;2022-09-03T10:48:18;3.20;;;3.00;;
4106;SDS011;21906;50.812;7.132;2022-09-03T10:53:49;3.70;;;3.03;;
4106;SDS011;21906;50.812;7.132;2022-09-03T10:56:16;3.43;;;2.83;;
4106;SDS011;21906;50.812;7.132;2022-09-03T11:01:36;3.40;;;3.20;;
4106;SDS011;21906;50.812;7.132;2022-09-03T11:07:02;3.73;;;3.43;;
4106;SDS011;21906;50.812;7.132;2022-09-03T11:12:15;3.50;;;3.30;;
4106;SDS011;21906;50.812;7.132;2022-09-03T11:18:13;3.37;;;3.17;;
4106;SDS011;21906;50.812;7.132;2022-09-03T11:20:49;3.50;;;3.30;;
4106;SDS011;21906;50.812;7.132;2022-09-03T11:23:18;3.53;;;3.33;;
4106;SDS011;21906;50.812;7.132;2022-09-03T11:25:48;3.67;;;3.40;;
4106;SDS011;21906;50.812;7.132;2022-09-03T11:33:30;3.90;;;3.70;;
4106;SDS011;21906;50.812;7.132;2022-09-03T11:35:59;3.80;;;3.50;;
4106;SDS011;21906;50.812;7.132;2022-09-03T11:38:26;3.60;;;3.40;;
4106;SDS011;21906;50.812;7.132;2022-09-03T11:43:36;3.53;;;3.33;;
4106;SDS011;21906;50.812;7.132;2022-09-03T11:48:54;3.50;;;3.30;;
4106;SDS011;21906;50.812;7.132;2022-09-03T11:54:04;3.53;;;3.33;;
4106;SDS011;21906;50.812;7.132;2022-09-03T11:56:30;3.70;;;3.50;;
4106;SDS011;21906;50.812;7.132;2022-09-03T11:58:58;3.50;;;3.30;;
4106;SDS011;21906;50.812;7.132;2022-09-03T12:01:34;3.57;;;3.30;;
4106;SDS011;21906;50.812;7.132;2022-09-03T12:04:02;3.53;;;3.33;;
4106;SDS011;21906;50.812;7.132;2022-09-03T12:17:50;3.70;;;3.40;;
4106;SDS011;21906;50.812;7.132;2022-09-03T12:20:46;4.73;;;3.90;;
4106;SDS011;21906;50.812;7.132;2022-09-03T12:23:57;4.03;;;3.83;;
4106;SDS011;21906;50.812;7.132;2022-09-03T12:26:25;4.30;;;4.10;;
4106;SDS011;21906;50.812;7.132;2022-09-03T12:28:57;3.90;;;3.70;;
4106;SDS011;21906;50.812;7.132;2022-09-03T12:31:28;4.10;;;3.90;;
4106;SDS011;21906;50.812;7.132;2022-09-03T12:36:27;4.17;;;3.97;;
4106;SDS011;21906;50.812;7.132;2022-09-03T12:39:08;4.23;;;4.03;;
4106;SDS011;21906;50.812;7.132;2022-09-03T12:41:45;3.80;;;3.50;;
4106;SDS011;21906;50.812;7.132;2022-09-03T12:47:00;3.90;;;3.57;;
4106;SDS011;21906;50.812;7.132;2022-09-03T12:49:32;4.20;;;3.90;;
4106;SDS011;21906;50.812;7.132;2022-09-03T12:52:45;4.10;;;3.80;;
4106;SDS011;21906;50.812;7.132;2022-09-03T12:55:02;4.20;;;3.83;;
4106;SDS011;21906;50.812;7.132;2022-09-03T12:57:32;3.40;;;3.30;;
4106;SDS011;21906;50.812;7.132;2022-09-03T13:00:08;3.63;;;3.43;;
4106;SDS011;21906;50.812;7.132;2022-09-03T13:02:43;3.80;;;3.50;;
4106;SDS011;21906;50.812;7.132;2022-09-03T13:05:18;3.37;;;3.17;;
4106;SDS011;21906;50.812;7.132;2022-09-03T13:07:54;4.00;;;3.80;;
4106;SDS011;21906;50.812;7.132;2022-09-03T13:10:28;4.00;;;3.80;;
4106;SDS011;21906;50.812;7.132;2022-09-03T13:12:59;3.97;;;3.77;;
4106;SDS011;21906;50.812;7.132;2022-09-03T13:15:27;3.83;;;3.63;;
4106;SDS011;21906;50.812;7.132;2022-09-03T13:18:07;4.23;;;4.03;;
4106;SDS011;21906;50.812;7.132;2022-09-03T13:20:47;4.23;;;4.03;;
4106;SDS011;21906;50.812;7.132;2022-09-03T13:31:48;4.07;;;3.70;;
4106;SDS011;21906;50.812;7.132;2022-09-03T13:39:32;3.77;;;3.57;;
4106;SDS011;21906;50.812;7.132;2022-09-03T13:42:12;3.90;;;3.60;;
4106;SDS011;21906;50.812;7.132;2022-09-03T13:44:47;3.90;;;3.70;;
4106;SDS011;21906;50.812;7.132;2022-09-03T13:50:09;4.17;;;3.87;;
4106;SDS011;21906;50.812;7.132;2022-09-03T13:58:03;4.00;;;3.80;;
4106;SDS011;21906;50.812;7.132;2022-09-03T14:00:46;3.60;;;3.50;;
4106;SDS011;21906;50.812;7.132;2022-09-03T14:03:51;4.10;;;3.37;;
4106;SDS011;21906;50.812;7.132;2022-09-03T14:06:28;4.10;;;3.90;;
4106;SDS011;21906;50.812;7.132;2022-09-03T14:11:48;3.87;;;3.67;;
4106;SDS011;21906;50.812;7.132;2022-09-03T14:20:11;3.30;;;3.10;;
4106;SDS011;21906;50.812;7.132;2022-09-03T14:23:02;3.40;;;3.30;;
4106;SDS011;21906;50.812;7.132;2022-09-03T14:25:34;4.17;;;3.97;;
4106;SDS011;21906;50.812;7.132;2022-09-03T14:30:53;3.67;;;3.47;;
4106;SDS011;21906;50.812;7.132;2022-09-03T14:33:33;3.87;;;3.67;;
4106;SDS011;21906;50.812;7.132;2022-09-03T14:36:26;4.07;;;3.77;;
4106;SDS011;21906;50.812;7.132;2022-09-03T14:39:03;3.77;;;3.57;;
4106;SDS011;21906;50.812;7.132;2022-09-03T15:01:37;3.50;;;3.30;;
4106;SDS011;21906;50.812;7.132;2022-09-03T15:09:45;3.47;;;3.27;;
4106;SDS011;21906;50.812;7.132;2022-09-03T15:12:34;3.70;;;3.40;;
4106;SDS011;21906;50.812;7.132;2022-09-03T15:15:43;3.60;;;3.30;;
4106;SDS011;21906;50.812;7.132;2022-09-03T15:18:12;2.93;;;2.83;;
4106;SDS011;21906;50.812;7.132;2022-09-03T15:20:47;2.80;;;2.70;;
4106;SDS011;21906;50.812;7.132;2022-09-03T15:36:57;3.33;;;3.13;;
4106;SDS011;21906;50.812;7.132;2022-09-03T15:39:32;2.80;;;2.60;;
4106;SDS011;21906;50.812;7.132;2022-09-03T15:42:03;2.60;;;2.50;;
4106;SDS011;21906;50.812;7.132;2022-09-03T15:44:34;3.27;;;3.07;;
4106;SDS011;21906;50.812;7.132;2022-09-03T15:47:31;3.20;;;3.00;;
4106;SDS011;21906;50.812;7.132;2022-09-03T15:50:14;3.60;;;3.30;;
4106;SDS011;21906;50.812;7.132;2022-09-03T15:52:48;3.27;;;3.07;;
4106;SDS011;21906;50.812;7.132;2022-09-03T15:58:21;3.30;;;3.10;;
4106;SDS011;21906;50.812;7.132;2022-09-03T16:01:29;3.23;;;3.03;;
4106;SDS011;21906;50.812;7.132;2022-09-03T16:09:33;2.67;;;2.57;;
4106;SDS011;21906;50.812;7.132;2022-09-03T16:15:11;2.83;;;2.57;;
4106;SDS011;21906;50.812;7.132;2022-09-03T16:17:55;2.70;;;2.50;;
4106;SDS011;21906;50.812;7.132;2022-09-03T16:25:56;3.03;;;2.83;;
4106;SDS011;21906;50.812;7.132;2022-09-03T16:41:59;4.30;;;3.33;;
4106;SDS011;21906;50.812;7.132;2022-09-03T16:52:40;3.10;;;2.90;;
4106;SDS011;21906;50.812;7.132;2022-09-03T16:55:16;3.23;;;3.00;;
4106;SDS011;21906;50.812;7.132;2022-09-03T17:03:39;4.93;;;3.30;;
4106;SDS011;21906;50.812;7.132;2022-09-03T17:11:40;2.90;;;2.70;;
4106;SDS011;21906;50.812;7.132;2022-09-03T17:23:30;2.37;;;2.27;;
4106;SDS011;21906;50.812;7.132;2022-09-03T17:51:25;2.20;;;2.00;;
4106;SDS011;21906;50.812;7.132;2022-09-03T17:59:52;3.70;;;2.97;;
4106;SDS011;21906;50.812;7.132;2022-09-03T18:02:28;3.20;;;3.00;;
4106;SDS011;21906;50.812;7.132;2022-09-03T18:05:20;5.33;;;3.10;;
4106;SDS011;21906;50.812;7.132;2022-09-03T18:10:31;3.73;;;3.53;;
4106;SDS011;21906;50.812;7.132;2022-09-03T18:15:48;3.43;;;3.20;;
4106;SDS011;21906;50.812;7.132;2022-09-03T18:18:29;3.33;;;3.13;;
4106;SDS011;21906;50.812;7.132;2022-09-03T18:20:57;3.70;;;3.50;;
4106;SDS011;21906;50.812;7.132;2022-09-03T18:27:31;4.47;;;3.60;;
4106;SDS011;21906;50.812;7.132;2022-09-03T18:30:07;4.43;;;4.13;;
4106;SDS011;21906;50.812;7.132;2022-09-03T18:32:53;3.80;;;3.57;;
4106;SDS011;21906;50.812;7.132;2022-09-03T18:35:37;4.60;;;4.27;;
4106;SDS011;21906;50.812;7.132;2022-09-03T18:38:24;3.47;;;3.27;;
4106;SDS011;21906;50.812;7.132;2022-09-03T18:50:28;3.73;;;3.30;;
4106;SDS011;21906;50.812;7.132;2022-09-03T18:53:30;4.23;;;3.83;;
4106;SDS011;21906;50.812;7.132;2022-09-03T18:56:25;3.20;;;3.00;;
4106;SDS011;21906;50.812;7.132;2022-09-03T19:09:23;3.50;;;3.20;;
4106;SDS011;21906;50.812;7.132;2022-09-03T19:14:36;3.97;;;3.13;;
4106;SDS011;21906;50.812;7.132;2022-09-03T19:17:29;3.50;;;3.20;;
4106;SDS011;21906;50.812;7.132;2022-09-03T19:20:29;3.80;;;3.40;;
4106;SDS011;21906;50.812;7.132;2022-09-03T19:23:17;3.33;;;3.03;;
4106;SDS011;21906;50.812;7.132;2022-09-03T19:26:17;3.30;;;3.10;;
4106;SDS011;21906;50.812;7.132;2022-09-03T19:30:14;3.50;;;3.30;;
4106;SDS011;21906;50.812;7.132;2022-09-03T19:32:55;3.40;;;3.20;;
4106;SDS011;21906;50.812;7.132;2022-09-03T19:42:11;4.60;;;4.20;;
4106;SDS011;21906;50.812;7.132;2022-09-03T19:51:52;4.40;;;4.10;;
4106;SDS011;21906;50.812;7.132;2022-09-03T19:54:58;4.17;;;3.87;;
4106;SDS011;21906;50.812;7.132;2022-09-03T19:57:44;4.00;;;3.80;;
4106;SDS011;21906;50.812;7.132;2022-09-03T20:00:35;3.73;;;3.53;;
4106;SDS011;21906;50.812;7.132;2022-09-03T20:03:19;3.80;;;3.50;;
4106;SDS011;21906;50.812;7.132;2022-09-03T20:06:04;3.70;;;3.40;;
4106;SDS011;21906;50.812;7.132;2022-09-03T20:08:50;3.70;;;3.40;;
4106;SDS011;21906;50.812;7.132;2022-09-03T20:11:35;3.80;;;3.60;;
4106;SDS011;21906;50.812;7.132;2022-09-03T20:14:04;5.10;;;4.80;;
4106;SDS011;21906;50.812;7.132;2022-09-03T20:22:20;4.10;;;3.90;;
4106;SDS011;21906;50.812;7.132;2022-09-03T20:30:36;4.77;;;4.40;;
4106;SDS011;21906;50.812;7.132;2022-09-03T20:33:17;3.90;;;3.70;;
4106;SDS011;21906;50.812;7.132;2022-09-03T20:36:07;4.03;;;3.73;;
4106;SDS011;21906;50.812;7.132;2022-09-03T20:49:36;4.30;;;4.00;;
4106;SDS011;21906;50.812;7.132;2022-09-03T20:52:25;4.00;;;3.80;;
4106;SDS011;21906;50.812;7.132;2022-09-03T20:55:19;4.40;;;4.20;;
4106;SDS011;21906;50.812;7.132;2022-09-03T21:01:09;4.40;;;4.10;;
4106;SDS011;21906;50.812;7.132;2022-09-03T21:11:52;3.87;;;3.60;;
4106;SDS011;21906;50.812;7.132;2022-09-03T21:17:06;3.90;;;3.70;;
4106;SDS011;21906;50.812;7.132;2022-09-03T21:20:10;3.87;;;3.37;;
4106;SDS011;21906;50.812;7.132;2022-09-03T21:25:51;4.13;;;3.90;;
4106;SDS011;21906;50.812;7.132;2022-09-03T21:28:26;4.00;;;3.80;;
4106;SDS011;21906;50.812;7.132;2022-09-03T21:31:10;4.17;;;3.87;;
4106;SDS011;21906;50.812;7.132;2022-09-03T21:33:38;3.90;;;3.60;;
4106;SDS011;21906;50.812;7.132;2022-09-03T21:36:13;4.13;;;3.80;;
4106;SDS011;21906;50.812;7.132;2022-09-03T21:38:45;3.93;;;3.73;;
4106;SDS011;21906;50.812;7.132;2022-09-03T21:41:16;4.00;;;3.80;;
4106;SDS011;21906;50.812;7.132;2022-09-03T21:44:00;4.10;;;3.80;;
4106;SDS011;21906;50.812;7.132;2022-09-03T21:46:39;4.00;;;3.80;;
4106;SDS011;21906;50.812;7.132;2022-09-03T21:49:41;4.50;;;4.27;;
4106;SDS011;21906;50.812;7.132;2022-09-03T21:55:09;4.00;;;3.80;;
4106;SDS011;21906;50.812;7.132;2022-09-03T21:57:50;3.80;;;3.60;;
4106;SDS011;21906;50.812;7.132;2022-09-03T22:00:27;3.80;;;3.60;;
4106;SDS011;21906;50.812;7.132;2022-09-03T22:02:59;4.07;;;3.87;;
4106;SDS011;21906;50.812;7.132;2022-09-03T22:05:30;3.97;;;3.67;;
4106;SDS011;21906;50.812;7.132;2022-09-03T22:08:52;4.20;;;4.00;;
4106;SDS011;21906;50.812;7.132;2022-09-03T22:10:58;4.20;;;3.90;;
4106;SDS011;21906;50.812;7.132;2022-09-03T22:18:58;4.10;;;3.80;;
4106;SDS011;21906;50.812;7.132;2022-09-03T22:21:35;4.40;;;4.10;;
4106;SDS011;21906;50.812;7.132;2022-09-03T22:24:17;3.97;;;3.77;;
4106;SDS011;21906;50.812;7.132;2022-09-03T22:32:00;3.90;;;3.70;;
4106;SDS011;21906;50.812;7.132;2022-09-03T22:46:18;3.70;;;3.40;;
4106;SDS011;21906;50.812;7.132;2022-09-03T22:48:56;3.63;;;3.43;;
4106;SDS011;21906;50.812;7.132;2022-09-03T22:57:17;4.10;;;3.90;;
4106;SDS011;21906;50.812;7.132;2022-09-03T23:00:18;3.70;;;3.50;;
4106;SDS011;21906;50.812;7.132;2022-09-03T23:02:37;4.17;;;3.97;;
4106;SDS011;21906;50.812;7.132;2022-09-03T23:05:09;3.40;;;3.20;;
4106;SDS011;21906;50.812;7.132;2022-09-03T23:07:49;4.10;;;3.90;;
4106;SDS011;21906;50.812;7.132;2022-09-03T23:16:21;4.23;;;3.97;;
4106;SDS011;21906;50.812;7.132;2022-09-03T23:18:55;3.80;;;3.60;;
4106;SDS011;21906;50.812;7.132;2022-09-03T23:21:48;4.43;;;4.23;;
4106;SDS011;21906;50.812;7.132;2022-09-03T23:24:43;4.13;;;3.93;;
4106;SDS011;21906;50.812;7.132;2022-09-03T23:27:19;4.30;;;4.00;;